sensor_id;sensor_type;location;lat;lon;timestamp;pressure;altitude;pressure_sealevel;temperature;humidity
61814;BME280;57055;-35.296;149.168;2023-02-04T00:00:53;94160.31;;;15.98;31.38
61814;BME280;57055;-35.296;149.168;2023-02-04T00:03:22;94170.05;;;16.22;31.43
61814;BME280;57055;-35.296;149.168;2023-02-04T00:05:50;94185.91;;;16.28;31.93
61814;BME280;57055;-35.296;149.168;2023-02-04T00:08:19;94187.25;;;16.64;31.78
61814;BME280;57055;-35.296;149.168;2023-02-04T00:10:48;94190.08;;;16.73;31.93
61814;BME280;57055;-35.296;149.168;2023-02-04T00:13:17;94206.46;;;16.63;32.03
61814;BME280;57055;-35.296;149.168;2023-02-04T00:15:46;94202.84;;;16.80;31.62
61814;BME280;57055;-35.296;149.168;2023-02-04T00:18:15;94193.44;;;16.52;31.54
61814;BME280;57055;-35.296;149.168;2023-02-04T00:20:44;94192.03;;;16.74;31.87
61814;BME280;57055;-35.296;149.168;2023-02-04T00:23:13;94201.89;;;16.78;32.26
61814;BME280;57055;-35.296;149.168;2023-02-04T00:25:41;94202.95;;;16.81;31.97
61814;BME280;57055;-35.296;149.168;2023-02-04T00:28:10;94191.86;;;16.88;31.64
61814;BME280;57055;-35.296;149.168;2023-02-04T00:30:39;94190.78;;;16.90;31.20
61814;BME280;57055;-35.296;149.168;2023-02-04T00:33:08;94189.60;;;17.12;31.69
61814;BME280;57055;-35.296;149.168;2023-02-04T00:35:37;94190.67;;;16.99;32.21
61814;BME280;57055;-35.296;149.168;2023-02-04T00:38:06;94203.41;;;17.01;32.56
61814;BME280;57055;-35.296;149.168;2023-02-04T00:40:35;94217.55;;;17.02;31.77
61814;BME280;57055;-35.296;149.168;2023-02-04T00:43:04;94182.20;;;17.13;31.06
61814;BME280;57055;-35.296;149.168;2023-02-04T00:45:33;94204.88;;;17.11;31.31
61814;BME280;57055;-35.296;149.168;2023-02-04T00:48:02;94197.76;;;17.34;30.86
61814;BME280;57055;-35.296;149.168;2023-02-04T00:50:32;94205.80;;;17.17;31.38
61814;BME280;57055;-35.296;149.168;2023-02-04T00:53:01;94210.34;;;16.95;31.95
61814;BME280;57055;-35.296;149.168;2023-02-04T00:55:30;94202.36;;;17.08;32.23
61814;BME280;57055;-35.296;149.168;2023-02-04T00:57:58;94203.16;;;16.84;32.44
61814;BME280;57055;-35.296;149.168;2023-02-04T01:00:28;94211.42;;;16.70;32.03
61814;BME280;57055;-35.296;149.168;2023-02-04T01:02:56;94218.04;;;16.66;31.92
61814;BME280;57055;-35.296;149.168;2023-02-04T01:05:25;94214.30;;;16.82;32.25
61814;BME280;57055;-35.296;149.168;2023-02-04T01:07:55;94228.73;;;16.78;32.36
61814;BME280;57055;-35.296;149.168;2023-02-04T01:10:25;94219.64;;;16.67;32.61
61814;BME280;57055;-35.296;149.168;2023-02-04T01:12:54;94226.64;;;17.20;33.20
61814;BME280;57055;-35.296;149.168;2023-02-04T01:15:23;94213.19;;;17.23;31.97
61814;BME280;57055;-35.296;149.168;2023-02-04T01:17:52;94211.91;;;17.16;32.12
61814;BME280;57055;-35.296;149.168;2023-02-04T01:20:21;94222.11;;;17.55;31.95
61814;BME280;57055;-35.296;149.168;2023-02-04T01:22:50;94234.25;;;17.69;32.04
61814;BME280;57055;-35.296;149.168;2023-02-04T01:25:19;94220.46;;;17.52;32.06
61814;BME280;57055;-35.296;149.168;2023-02-04T01:27:48;94222.51;;;17.80;31.85
61814;BME280;57055;-35.296;149.168;2023-02-04T01:30:17;94224.09;;;17.59;31.90
61814;BME280;57055;-35.296;149.168;2023-02-04T01:32:46;94229.42;;;17.48;32.35
61814;BME280;57055;-35.296;149.168;2023-02-04T01:35:15;94230.67;;;17.55;30.97
61814;BME280;57055;-35.296;149.168;2023-02-04T01:37:44;94233.49;;;17.45;30.73
61814;BME280;57055;-35.296;149.168;2023-02-04T01:40:13;94242.41;;;17.10;30.75
61814;BME280;57055;-35.296;149.168;2023-02-04T01:42:42;94229.41;;;17.52;30.59
61814;BME280;57055;-35.296;149.168;2023-02-04T01:45:11;94238.58;;;17.63;30.71
61814;BME280;57055;-35.296;149.168;2023-02-04T01:47:40;94222.30;;;17.54;31.33
61814;BME280;57055;-35.296;149.168;2023-02-04T01:50:13;94221.32;;;17.51;31.74
61814;BME280;57055;-35.296;149.168;2023-02-04T01:52:44;94231.23;;;18.08;31.89
61814;BME280;57055;-35.296;149.168;2023-02-04T01:55:16;94225.24;;;17.94;31.26
61814;BME280;57055;-35.296;149.168;2023-02-04T01:57:46;94236.89;;;17.66;31.31
61814;BME280;57055;-35.296;149.168;2023-02-04T02:00:18;94223.33;;;17.98;30.66
61814;BME280;57055;-35.296;149.168;2023-02-04T02:02:51;94226.94;;;17.73;30.58
61814;BME280;57055;-35.296;149.168;2023-02-04T02:05:24;94242.79;;;17.94;31.11
61814;BME280;57055;-35.296;149.168;2023-02-04T02:07:55;94250.98;;;17.69;31.12
61814;BME280;57055;-35.296;149.168;2023-02-04T02:10:27;94248.90;;;17.83;31.18
61814;BME280;57055;-35.296;149.168;2023-02-04T02:12:56;94260.27;;;17.86;31.15
61814;BME280;57055;-35.296;149.168;2023-02-04T02:15:26;94254.66;;;17.84;30.87
61814;BME280;57055;-35.296;149.168;2023-02-04T02:17:55;94249.94;;;18.00;31.30
61814;BME280;57055;-35.296;149.168;2023-02-04T02:20:26;94250.58;;;17.50;31.60
61814;BME280;57055;-35.296;149.168;2023-02-04T02:23:05;94241.04;;;17.56;31.73
61814;BME280;57055;-35.296;149.168;2023-02-04T02:25:40;94239.34;;;17.58;31.75
61814;BME280;57055;-35.296;149.168;2023-02-04T02:28:11;94251.93;;;17.58;31.78
61814;BME280;57055;-35.296;149.168;2023-02-04T02:30:41;94262.90;;;17.15;32.24
61814;BME280;57055;-35.296;149.168;2023-02-04T02:33:11;94255.94;;;17.16;32.81
61814;BME280;57055;-35.296;149.168;2023-02-04T02:35:41;94253.12;;;17.29;32.88
61814;BME280;57055;-35.296;149.168;2023-02-04T02:38:11;94259.92;;;16.80;32.92
61814;BME280;57055;-35.296;149.168;2023-02-04T02:40:40;94265.35;;;16.72;33.19
61814;BME280;57055;-35.296;149.168;2023-02-04T02:43:10;94276.29;;;16.88;33.67
61814;BME280;57055;-35.296;149.168;2023-02-04T02:43:16;94272.68;;;17.13;33.67
61814;BME280;57055;-35.296;149.168;2023-02-04T02:45:45;94276.50;;;16.67;33.73
61814;BME280;57055;-35.296;149.168;2023-02-04T02:48:16;94275.38;;;16.66;33.97
61814;BME280;57055;-35.296;149.168;2023-02-04T02:50:45;94276.37;;;16.77;34.38
61814;BME280;57055;-35.296;149.168;2023-02-04T02:53:16;94269.58;;;16.81;34.40
61814;BME280;57055;-35.296;149.168;2023-02-04T02:55:46;94267.82;;;16.81;34.43
61814;BME280;57055;-35.296;149.168;2023-02-04T02:58:23;94261.27;;;17.15;34.15
61814;BME280;57055;-35.296;149.168;2023-02-04T03:00:54;94256.11;;;16.58;34.38
61814;BME280;57055;-35.296;149.168;2023-02-04T03:03:25;94254.01;;;16.65;34.25
61814;BME280;57055;-35.296;149.168;2023-02-04T03:05:58;94265.65;;;16.81;34.39
61814;BME280;57055;-35.296;149.168;2023-02-04T03:08:29;94267.82;;;16.59;34.16
61814;BME280;57055;-35.296;149.168;2023-02-04T03:10:57;94256.13;;;16.93;34.28
61814;BME280;57055;-35.296;149.168;2023-02-04T03:13:27;94262.05;;;16.76;34.36
61814;BME280;57055;-35.296;149.168;2023-02-04T03:15:56;94263.12;;;16.58;34.82
61814;BME280;57055;-35.296;149.168;2023-02-04T03:18:26;94252.73;;;16.69;35.06
61814;BME280;57055;-35.296;149.168;2023-02-04T03:20:55;94249.13;;;16.93;35.09
61814;BME280;57055;-35.296;149.168;2023-02-04T03:23:25;94232.48;;;17.01;34.90
61814;BME280;57055;-35.296;149.168;2023-02-04T03:25:54;94234.85;;;17.16;35.03
61814;BME280;57055;-35.296;149.168;2023-02-04T03:28:23;94240.83;;;17.19;35.06
61814;BME280;57055;-35.296;149.168;2023-02-04T03:30:52;94236.78;;;17.00;35.20
61814;BME280;57055;-35.296;149.168;2023-02-04T03:33:21;94244.55;;;16.92;35.44
61814;BME280;57055;-35.296;149.168;2023-02-04T03:35:50;94252.70;;;16.77;35.31
61814;BME280;57055;-35.296;149.168;2023-02-04T03:38:19;94248.04;;;17.02;35.19
61814;BME280;57055;-35.296;149.168;2023-02-04T03:40:49;94237.38;;;16.97;35.51
61814;BME280;57055;-35.296;149.168;2023-02-04T03:43:17;94217.23;;;17.10;35.19
61814;BME280;57055;-35.296;149.168;2023-02-04T03:45:46;94230.12;;;17.40;35.48
61814;BME280;57055;-35.296;149.168;2023-02-04T03:48:15;94218.44;;;17.51;34.96
61814;BME280;57055;-35.296;149.168;2023-02-04T03:50:43;94216.13;;;17.40;34.35
61814;BME280;57055;-35.296;149.168;2023-02-04T03:53:12;94223.85;;;17.54;34.74
61814;BME280;57055;-35.296;149.168;2023-02-04T03:55:41;94235.17;;;17.24;34.84
61814;BME280;57055;-35.296;149.168;2023-02-04T03:58:10;94230.68;;;17.29;34.82
61814;BME280;57055;-35.296;149.168;2023-02-04T04:00:39;94234.16;;;17.60;35.23
61814;BME280;57055;-35.296;149.168;2023-02-04T04:03:08;94243.07;;;17.17;35.07
61814;BME280;57055;-35.296;149.168;2023-02-04T04:05:36;94252.65;;;17.50;35.06
61814;BME280;57055;-35.296;149.168;2023-02-04T04:08:05;94259.07;;;17.22;35.28
61814;BME280;57055;-35.296;149.168;2023-02-04T04:10:34;94268.87;;;17.00;35.84
61814;BME280;57055;-35.296;149.168;2023-02-04T04:13:03;94266.31;;;16.92;36.05
61814;BME280;57055;-35.296;149.168;2023-02-04T04:15:32;94253.66;;;16.73;36.10
61814;BME280;57055;-35.296;149.168;2023-02-04T04:18:00;94252.22;;;16.80;36.16
61814;BME280;57055;-35.296;149.168;2023-02-04T04:20:29;94253.81;;;16.69;36.31
61814;BME280;57055;-35.296;149.168;2023-02-04T04:22:57;94257.23;;;16.66;36.14
61814;BME280;57055;-35.296;149.168;2023-02-04T04:25:26;94249.89;;;17.02;36.20
61814;BME280;57055;-35.296;149.168;2023-02-04T04:27:54;94255.86;;;17.01;36.35
61814;BME280;57055;-35.296;149.168;2023-02-04T04:30:24;94259.68;;;17.15;36.26
61814;BME280;57055;-35.296;149.168;2023-02-04T04:32:52;94266.27;;;17.24;36.47
61814;BME280;57055;-35.296;149.168;2023-02-04T04:35:21;94262.60;;;17.17;36.49
61814;BME280;57055;-35.296;149.168;2023-02-04T04:37:50;94264.24;;;16.91;36.29
61814;BME280;57055;-35.296;149.168;2023-02-04T04:40:18;94259.45;;;16.95;36.27
61814;BME280;57055;-35.296;149.168;2023-02-04T04:42:48;94263.46;;;16.91;36.53
61814;BME280;57055;-35.296;149.168;2023-02-04T04:45:16;94266.33;;;16.86;36.93
61814;BME280;57055;-35.296;149.168;2023-02-04T04:47:46;94265.52;;;16.82;36.81
61814;BME280;57055;-35.296;149.168;2023-02-04T04:50:15;94280.16;;;16.99;36.89
61814;BME280;57055;-35.296;149.168;2023-02-04T04:52:44;94265.81;;;16.92;37.00
61814;BME280;57055;-35.296;149.168;2023-02-04T04:55:13;94252.76;;;16.85;37.00
61814;BME280;57055;-35.296;149.168;2023-02-04T04:57:42;94252.53;;;17.00;37.25
61814;BME280;57055;-35.296;149.168;2023-02-04T05:00:14;94262.73;;;17.31;37.18
61814;BME280;57055;-35.296;149.168;2023-02-04T05:02:43;94262.90;;;17.04;37.22
61814;BME280;57055;-35.296;149.168;2023-02-04T05:05:13;94253.84;;;17.14;37.21
61814;BME280;57055;-35.296;149.168;2023-02-04T05:07:42;94258.19;;;17.18;37.03
61814;BME280;57055;-35.296;149.168;2023-02-04T05:10:11;94267.53;;;17.00;36.91
61814;BME280;57055;-35.296;149.168;2023-02-04T05:12:39;94264.88;;;16.60;36.93
61814;BME280;57055;-35.296;149.168;2023-02-04T05:15:09;94274.28;;;17.01;37.17
61814;BME280;57055;-35.296;149.168;2023-02-04T05:17:38;94267.19;;;16.83;37.13
61814;BME280;57055;-35.296;149.168;2023-02-04T05:20:08;94268.79;;;17.03;37.48
61814;BME280;57055;-35.296;149.168;2023-02-04T05:22:37;94269.35;;;17.03;37.22
61814;BME280;57055;-35.296;149.168;2023-02-04T05:25:06;94269.72;;;17.07;36.92
61814;BME280;57055;-35.296;149.168;2023-02-04T05:27:35;94253.34;;;16.98;37.28
61814;BME280;57055;-35.296;149.168;2023-02-04T05:30:04;94258.18;;;17.13;36.59
61814;BME280;57055;-35.296;149.168;2023-02-04T05:32:34;94256.64;;;17.04;36.65
61814;BME280;57055;-35.296;149.168;2023-02-04T05:35:03;94245.47;;;17.14;37.16
61814;BME280;57055;-35.296;149.168;2023-02-04T05:37:32;94252.08;;;17.21;36.89
61814;BME280;57055;-35.296;149.168;2023-02-04T05:40:01;94251.19;;;17.12;37.14
61814;BME280;57055;-35.296;149.168;2023-02-04T05:42:30;94244.22;;;16.94;37.09
61814;BME280;57055;-35.296;149.168;2023-02-04T05:44:59;94249.50;;;17.05;37.18
61814;BME280;57055;-35.296;149.168;2023-02-04T05:47:28;94250.01;;;17.08;37.28
61814;BME280;57055;-35.296;149.168;2023-02-04T05:49:57;94257.03;;;17.28;37.37
61814;BME280;57055;-35.296;149.168;2023-02-04T05:52:27;94253.11;;;17.22;37.37
61814;BME280;57055;-35.296;149.168;2023-02-04T05:54:56;94252.25;;;17.40;37.17
61814;BME280;57055;-35.296;149.168;2023-02-04T05:57:26;94246.74;;;17.21;36.84
61814;BME280;57055;-35.296;149.168;2023-02-04T05:59:55;94245.64;;;17.64;36.60
61814;BME280;57055;-35.296;149.168;2023-02-04T06:02:23;94248.52;;;17.44;36.83
61814;BME280;57055;-35.296;149.168;2023-02-04T06:04:53;94246.24;;;17.74;36.52
61814;BME280;57055;-35.296;149.168;2023-02-04T06:07:22;94247.38;;;17.78;36.79
61814;BME280;57055;-35.296;149.168;2023-02-04T06:09:51;94255.36;;;17.58;37.03
61814;BME280;57055;-35.296;149.168;2023-02-04T06:12:20;94256.36;;;17.62;36.71
61814;BME280;57055;-35.296;149.168;2023-02-04T06:14:49;94268.05;;;17.93;36.89
61814;BME280;57055;-35.296;149.168;2023-02-04T06:17:17;94271.05;;;17.48;36.56
61814;BME280;57055;-35.296;149.168;2023-02-04T06:19:46;94278.69;;;17.95;36.54
61814;BME280;57055;-35.296;149.168;2023-02-04T06:22:15;94280.82;;;17.76;37.12
61814;BME280;57055;-35.296;149.168;2023-02-04T06:24:44;94286.07;;;17.89;37.15
61814;BME280;57055;-35.296;149.168;2023-02-04T06:27:13;94293.30;;;18.19;37.03
61814;BME280;57055;-35.296;149.168;2023-02-04T06:29:41;94283.16;;;18.21;36.64
61814;BME280;57055;-35.296;149.168;2023-02-04T06:32:10;94281.91;;;18.23;36.51
61814;BME280;57055;-35.296;149.168;2023-02-04T06:34:38;94292.82;;;18.27;36.10
61814;BME280;57055;-35.296;149.168;2023-02-04T06:37:07;94302.26;;;18.31;36.42
61814;BME280;57055;-35.296;149.168;2023-02-04T06:39:35;94282.13;;;18.33;36.06
61814;BME280;57055;-35.296;149.168;2023-02-04T06:42:04;94290.29;;;18.26;36.61
61814;BME280;57055;-35.296;149.168;2023-02-04T06:44:33;94290.42;;;18.14;36.47
61814;BME280;57055;-35.296;149.168;2023-02-04T06:47:03;94290.05;;;18.10;37.00
61814;BME280;57055;-35.296;149.168;2023-02-04T06:49:31;94292.74;;;18.30;36.98
61814;BME280;57055;-35.296;149.168;2023-02-04T06:52:00;94302.89;;;18.41;36.55
61814;BME280;57055;-35.296;149.168;2023-02-04T06:54:28;94303.15;;;18.24;36.51
61814;BME280;57055;-35.296;149.168;2023-02-04T06:56:57;94302.23;;;18.46;36.44
61814;BME280;57055;-35.296;149.168;2023-02-04T06:59:26;94314.89;;;18.26;36.14
61814;BME280;57055;-35.296;149.168;2023-02-04T07:01:54;94317.24;;;18.14;36.09
61814;BME280;57055;-35.296;149.168;2023-02-04T07:04:23;94312.91;;;18.45;36.16
61814;BME280;57055;-35.296;149.168;2023-02-04T07:06:52;94326.05;;;18.17;36.59
61814;BME280;57055;-35.296;149.168;2023-02-04T07:09:22;94330.06;;;18.33;36.53
61814;BME280;57055;-35.296;149.168;2023-02-04T07:11:52;94327.40;;;18.38;36.53
61814;BME280;57055;-35.296;149.168;2023-02-04T07:14:21;94337.45;;;18.39;36.29
61814;BME280;57055;-35.296;149.168;2023-02-04T07:16:49;94330.27;;;18.67;36.26
61814;BME280;57055;-35.296;149.168;2023-02-04T07:19:18;94331.80;;;18.41;36.55
61814;BME280;57055;-35.296;149.168;2023-02-04T07:21:47;94342.43;;;18.31;36.81
61814;BME280;57055;-35.296;149.168;2023-02-04T07:24:16;94354.55;;;18.19;37.10
61814;BME280;57055;-35.296;149.168;2023-02-04T07:26:44;94350.32;;;18.27;36.85
61814;BME280;57055;-35.296;149.168;2023-02-04T07:29:13;94346.13;;;18.11;36.75
61814;BME280;57055;-35.296;149.168;2023-02-04T07:31:41;94352.54;;;18.06;36.56
61814;BME280;57055;-35.296;149.168;2023-02-04T07:34:10;94362.87;;;18.03;36.95
61814;BME280;57055;-35.296;149.168;2023-02-04T07:36:39;94370.64;;;18.12;37.27
61814;BME280;57055;-35.296;149.168;2023-02-04T07:39:09;94368.05;;;17.96;37.07
61814;BME280;57055;-35.296;149.168;2023-02-04T07:41:37;94367.93;;;17.85;37.20
61814;BME280;57055;-35.296;149.168;2023-02-04T07:44:06;94372.91;;;17.78;37.53
61814;BME280;57055;-35.296;149.168;2023-02-04T07:46:34;94377.16;;;17.72;37.64
61814;BME280;57055;-35.296;149.168;2023-02-04T07:49:03;94376.24;;;17.52;37.82
61814;BME280;57055;-35.296;149.168;2023-02-04T07:51:32;94381.25;;;17.47;37.62
61814;BME280;57055;-35.296;149.168;2023-02-04T07:54:00;94398.52;;;17.46;38.06
61814;BME280;57055;-35.296;149.168;2023-02-04T07:56:29;94395.51;;;17.33;38.35
61814;BME280;57055;-35.296;149.168;2023-02-04T07:58:58;94387.53;;;17.43;38.35
61814;BME280;57055;-35.296;149.168;2023-02-04T08:01:27;94391.67;;;17.34;38.73
61814;BME280;57055;-35.296;149.168;2023-02-04T08:03:55;94396.28;;;17.37;38.84
61814;BME280;57055;-35.296;149.168;2023-02-04T08:06:24;94402.80;;;17.38;39.00
61814;BME280;57055;-35.296;149.168;2023-02-04T08:08:52;94405.90;;;17.03;39.19
61814;BME280;57055;-35.296;149.168;2023-02-04T08:11:21;94416.97;;;17.27;39.23
61814;BME280;57055;-35.296;149.168;2023-02-04T08:13:50;94419.94;;;17.37;39.24
61814;BME280;57055;-35.296;149.168;2023-02-04T08:16:18;94419.77;;;17.21;39.62
61814;BME280;57055;-35.296;149.168;2023-02-04T08:18:47;94432.43;;;17.41;39.36
61814;BME280;57055;-35.296;149.168;2023-02-04T08:21:15;94437.96;;;17.05;39.54
61814;BME280;57055;-35.296;149.168;2023-02-04T08:23:44;94438.49;;;17.19;39.72
61814;BME280;57055;-35.296;149.168;2023-02-04T08:26:12;94448.64;;;17.15;39.81
61814;BME280;57055;-35.296;149.168;2023-02-04T08:28:41;94459.62;;;17.02;40.18
61814;BME280;57055;-35.296;149.168;2023-02-04T08:31:10;94462.17;;;17.24;40.18
61814;BME280;57055;-35.296;149.168;2023-02-04T08:33:38;94474.79;;;16.94;40.49
61814;BME280;57055;-35.296;149.168;2023-02-04T08:36:07;94477.29;;;16.85;40.50
61814;BME280;57055;-35.296;149.168;2023-02-04T08:38:36;94480.68;;;17.09;40.43
61814;BME280;57055;-35.296;149.168;2023-02-04T08:41:05;94488.42;;;16.95;40.38
61814;BME280;57055;-35.296;149.168;2023-02-04T08:43:33;94486.49;;;16.81;40.77
61814;BME280;57055;-35.296;149.168;2023-02-04T08:46:03;94496.21;;;16.89;40.89
61814;BME280;57055;-35.296;149.168;2023-02-04T08:48:31;94499.19;;;16.88;40.87
61814;BME280;57055;-35.296;149.168;2023-02-04T08:51:00;94500.63;;;17.01;40.58
61814;BME280;57055;-35.296;149.168;2023-02-04T08:53:29;94502.50;;;16.94;40.66
61814;BME280;57055;-35.296;149.168;2023-02-04T08:55:57;94498.72;;;16.79;40.85
61814;BME280;57055;-35.296;149.168;2023-02-04T08:58:27;94499.75;;;16.85;40.61
61814;BME280;57055;-35.296;149.168;2023-02-04T09:00:56;94504.82;;;17.06;40.62
61814;BME280;57055;-35.296;149.168;2023-02-04T09:03:25;94514.21;;;17.00;40.79
61814;BME280;57055;-35.296;149.168;2023-02-04T09:05:53;94512.64;;;16.97;40.94
61814;BME280;57055;-35.296;149.168;2023-02-04T09:08:22;94516.71;;;16.74;41.03
61814;BME280;57055;-35.296;149.168;2023-02-04T09:10:51;94517.06;;;16.70;41.03
61814;BME280;57055;-35.296;149.168;2023-02-04T09:13:19;94524.19;;;16.65;41.25
61814;BME280;57055;-35.296;149.168;2023-02-04T09:15:48;94526.30;;;16.76;41.12
61814;BME280;57055;-35.296;149.168;2023-02-04T09:18:16;94525.70;;;16.73;41.11
61814;BME280;57055;-35.296;149.168;2023-02-04T09:20:45;94532.27;;;16.73;41.17
61814;BME280;57055;-35.296;149.168;2023-02-04T09:23:15;94542.77;;;16.92;41.18
61814;BME280;57055;-35.296;149.168;2023-02-04T09:25:45;94539.44;;;16.43;41.10
61814;BME280;57055;-35.296;149.168;2023-02-04T09:28:14;94535.49;;;16.68;41.10
61814;BME280;57055;-35.296;149.168;2023-02-04T09:30:45;94534.38;;;16.69;41.14
61814;BME280;57055;-35.296;149.168;2023-02-04T09:33:15;94540.83;;;16.61;41.31
61814;BME280;57055;-35.296;149.168;2023-02-04T09:35:44;94547.67;;;16.57;41.57
61814;BME280;57055;-35.296;149.168;2023-02-04T09:38:13;94550.95;;;16.51;41.60
61814;BME280;57055;-35.296;149.168;2023-02-04T09:40:43;94554.38;;;16.52;41.45
61814;BME280;57055;-35.296;149.168;2023-02-04T09:43:19;94561.39;;;16.78;41.29
61814;BME280;57055;-35.296;149.168;2023-02-04T09:45:49;94564.22;;;16.54;41.38
61814;BME280;57055;-35.296;149.168;2023-02-04T09:48:18;94563.02;;;16.74;41.47
61814;BME280;57055;-35.296;149.168;2023-02-04T09:50:49;94571.69;;;16.51;41.51
61814;BME280;57055;-35.296;149.168;2023-02-04T09:53:22;94566.47;;;16.92;41.70
61814;BME280;57055;-35.296;149.168;2023-02-04T09:55:52;94569.63;;;16.65;41.87
61814;BME280;57055;-35.296;149.168;2023-02-04T09:58:23;94577.45;;;16.57;41.93
61814;BME280;57055;-35.296;149.168;2023-02-04T10:00:59;94578.91;;;16.37;42.01
61814;BME280;57055;-35.296;149.168;2023-02-04T10:03:28;94583.16;;;16.58;42.19
61814;BME280;57055;-35.296;149.168;2023-02-04T10:05:57;94583.89;;;16.50;42.47
61814;BME280;57055;-35.296;149.168;2023-02-04T10:08:30;94588.34;;;16.41;42.67
61814;BME280;57055;-35.296;149.168;2023-02-04T10:11:01;94593.95;;;16.20;42.72
61814;BME280;57055;-35.296;149.168;2023-02-04T10:13:33;94600.75;;;16.46;42.77
61814;BME280;57055;-35.296;149.168;2023-02-04T10:16:07;94609.48;;;16.74;42.83
61814;BME280;57055;-35.296;149.168;2023-02-04T10:18:37;94609.79;;;16.71;42.94
61814;BME280;57055;-35.296;149.168;2023-02-04T10:21:14;94607.19;;;16.49;42.63
61814;BME280;57055;-35.296;149.168;2023-02-04T10:23:46;94615.28;;;16.72;42.43
61814;BME280;57055;-35.296;149.168;2023-02-04T10:26:24;94618.00;;;16.36;42.64
61814;BME280;57055;-35.296;149.168;2023-02-04T10:28:59;94629.31;;;16.33;42.61
61814;BME280;57055;-35.296;149.168;2023-02-04T10:31:33;94629.19;;;16.54;42.76
61814;BME280;57055;-35.296;149.168;2023-02-04T10:34:09;94633.72;;;16.50;42.77
61814;BME280;57055;-35.296;149.168;2023-02-04T10:36:40;94630.53;;;16.25;42.73
61814;BME280;57055;-35.296;149.168;2023-02-04T10:39:13;94631.99;;;16.50;42.77
61814;BME280;57055;-35.296;149.168;2023-02-04T10:41:47;94633.79;;;16.26;42.73
61814;BME280;57055;-35.296;149.168;2023-02-04T10:44:19;94634.96;;;16.19;42.90
61814;BME280;57055;-35.296;149.168;2023-02-04T10:46:48;94635.84;;;16.26;42.84
61814;BME280;57055;-35.296;149.168;2023-02-04T10:49:20;94627.37;;;16.27;42.63
61814;BME280;57055;-35.296;149.168;2023-02-04T10:51:50;94619.19;;;16.54;42.56
61814;BME280;57055;-35.296;149.168;2023-02-04T10:54:22;94626.92;;;16.50;42.66
61814;BME280;57055;-35.296;149.168;2023-02-04T10:56:52;94620.94;;;16.39;42.83
61814;BME280;57055;-35.296;149.168;2023-02-04T10:59:23;94614.64;;;16.32;42.94
61814;BME280;57055;-35.296;149.168;2023-02-04T11:01:55;94621.05;;;16.11;42.99
61814;BME280;57055;-35.296;149.168;2023-02-04T11:04:26;94614.29;;;16.05;42.94
61814;BME280;57055;-35.296;149.168;2023-02-04T11:06:56;94617.53;;;16.28;43.03
61814;BME280;57055;-35.296;149.168;2023-02-04T11:09:24;94614.19;;;15.94;43.27
61814;BME280;57055;-35.296;149.168;2023-02-04T11:11:56;94609.00;;;16.05;43.71
61814;BME280;57055;-35.296;149.168;2023-02-04T11:14:28;94609.52;;;16.01;43.90
61814;BME280;57055;-35.296;149.168;2023-02-04T11:16:58;94612.73;;;16.02;44.13
61814;BME280;57055;-35.296;149.168;2023-02-04T11:19:35;94613.28;;;16.06;44.09
61814;BME280;57055;-35.296;149.168;2023-02-04T11:22:17;94616.14;;;15.89;43.91
61814;BME280;57055;-35.296;149.168;2023-02-04T11:24:47;94617.04;;;16.11;43.82
61814;BME280;57055;-35.296;149.168;2023-02-04T11:27:23;94625.23;;;16.05;43.92
61814;BME280;57055;-35.296;149.168;2023-02-04T11:30:05;94636.74;;;16.07;43.62
61814;BME280;57055;-35.296;149.168;2023-02-04T11:32:36;94638.51;;;15.79;43.50
61814;BME280;57055;-35.296;149.168;2023-02-04T11:35:24;94636.37;;;16.03;43.39
61814;BME280;57055;-35.296;149.168;2023-02-04T11:37:53;94638.43;;;15.90;43.64
61814;BME280;57055;-35.296;149.168;2023-02-04T11:40:27;94639.20;;;15.64;43.55
61814;BME280;57055;-35.296;149.168;2023-02-04T11:42:58;94654.66;;;15.83;43.90
61814;BME280;57055;-35.296;149.168;2023-02-04T11:45:30;94647.60;;;15.77;43.84
61814;BME280;57055;-35.296;149.168;2023-02-04T11:48:02;94652.06;;;15.74;43.86
61814;BME280;57055;-35.296;149.168;2023-02-04T11:50:33;94656.29;;;15.75;44.05
61814;BME280;57055;-35.296;149.168;2023-02-04T11:53:02;94657.85;;;15.66;44.18
61814;BME280;57055;-35.296;149.168;2023-02-04T11:55:36;94661.42;;;15.61;44.48
61814;BME280;57055;-35.296;149.168;2023-02-04T11:58:14;94671.53;;;15.61;44.44
61814;BME280;57055;-35.296;149.168;2023-02-04T12:00:44;94673.63;;;15.55;44.51
61814;BME280;57055;-35.296;149.168;2023-02-04T12:03:23;94673.66;;;15.76;44.48
61814;BME280;57055;-35.296;149.168;2023-02-04T12:05:53;94671.28;;;15.46;44.73
61814;BME280;57055;-35.296;149.168;2023-02-04T12:08:30;94670.53;;;15.41;44.85
61814;BME280;57055;-35.296;149.168;2023-02-04T12:11:03;94668.46;;;15.60;44.96
61814;BME280;57055;-35.296;149.168;2023-02-04T12:13:33;94669.33;;;15.54;45.06
61814;BME280;57055;-35.296;149.168;2023-02-04T12:16:12;94667.68;;;15.28;45.19
61814;BME280;57055;-35.296;149.168;2023-02-04T12:18:41;94664.54;;;15.45;45.22
61814;BME280;57055;-35.296;149.168;2023-02-04T12:21:10;94663.01;;;15.26;45.11
61814;BME280;57055;-35.296;149.168;2023-02-04T12:23:38;94659.96;;;15.33;44.90
61814;BME280;57055;-35.296;149.168;2023-02-04T12:26:07;94658.64;;;15.62;44.89
61814;BME280;57055;-35.296;149.168;2023-02-04T12:28:36;94657.29;;;15.35;44.93
61814;BME280;57055;-35.296;149.168;2023-02-04T12:31:04;94657.61;;;15.30;45.05
61814;BME280;57055;-35.296;149.168;2023-02-04T12:33:34;94656.83;;;15.48;45.11
61814;BME280;57055;-35.296;149.168;2023-02-04T12:36:04;94650.98;;;15.18;45.24
61814;BME280;57055;-35.296;149.168;2023-02-04T12:38:33;94652.01;;;15.08;45.53
61814;BME280;57055;-35.296;149.168;2023-02-04T12:41:01;94649.25;;;15.28;45.48